Time;durP1;ratioP1;P1;durP2;ratioP2;P2;SDS_P1;SDS_P2;PMS_P1;PMS_P2;Temp;Humidity;BMP_temperature;BMP_pressure;BME280_temperature;BME280_humidity;BME280_pressure;Samples;Min_cycle;Max_cycle;Signal;HPM_P1;HPM_P2
2023/06/13 00:00:33;;;;;;;1.40;1.30;;;;;;;;;;5054155;28;20017;-60
2023/06/13 00:03:00;;;;;;;2.55;1.50;;;;;;;;;;5054637;28;20090;-63
2023/06/13 00:05:25;;;;;;;2.38;1.65;;;;;;;;;;5055698;28;20025;-63
2023/06/13 00:07:51;;;;;;;4.70;1.40;;;;;;;;;;5056159;28;20029;-61
2023/06/13 00:10:17;;;;;;;5.10;1.67;;;;;;;;;;5055774;28;20498;-63
2023/06/13 00:12:44;;;;;;;2.38;1.70;;;;;;;;;;5055826;28;20032;-60
2023/06/13 00:15:11;;;;;;;1.50;1.40;;;;;;;;;;5055044;28;20021;-64
2023/06/13 00:17:40;;;;;;;2.05;1.58;;;;;;;;;;5055736;28;20032;-60
2023/06/13 00:20:06;;;;;;;3.50;1.42;;;;;;;;;;5055948;28;20025;-60
2023/06/13 00:22:32;;;;;;;1.73;1.50;;;;;;;;;;5055633;28;20111;-60
2023/06/13 00:24:57;;;;;;;1.50;1.40;;;;;;;;;;5055911;28;20108;-60
2023/06/13 00:27:23;;;;;;;2.28;1.60;;;;;;;;;;5055552;28;20384;-61
2023/06/13 00:29:48;;;;;;;2.60;1.58;;;;;;;;;;5055833;28;20025;-60
2023/06/13 00:32:15;;;;;;;1.73;1.55;;;;;;;;;;5055433;28;20484;-60
2023/06/13 00:34:40;;;;;;;2.25;1.33;;;;;;;;;;5055387;28;20035;-60
2023/06/13 00:37:09;;;;;;;2.42;1.63;;;;;;;;;;5055432;28;20104;-60
2023/06/13 00:39:36;;;;;;;3.20;1.55;;;;;;;;;;5055385;28;20454;-60
2023/06/13 00:42:02;;;;;;;1.55;1.45;;;;;;;;;;5055373;28;20021;-60
2023/06/13 00:44:27;;;;;;;1.80;1.70;;;;;;;;;;5055300;28;20021;-60
2023/06/13 00:46:53;;;;;;;2.15;1.50;;;;;;;;;;5055486;28;20028;-61
2023/06/13 00:49:19;;;;;;;1.77;1.50;;;;;;;;;;5055203;28;20468;-60
2023/06/13 00:51:46;;;;;;;1.85;1.60;;;;;;;;;;5055362;28;20045;-60
2023/06/13 00:54:16;;;;;;;1.60;1.50;;;;;;;;;;5054975;28;20021;-60
2023/06/13 00:56:44;;;;;;;1.52;1.42;;;;;;;;;;5055066;28;20021;-60
2023/06/13 00:59:11;;;;;;;1.65;1.52;;;;;;;;;;5055245;28;20372;-60
2023/06/13 01:01:40;;;;;;;3.85;1.60;;;;;;;;;;5054973;28;20028;-61
2023/06/13 01:04:07;;;;;;;1.20;1.20;;;;;;;;;;5055112;28;20036;-61
2023/06/13 01:06:38;;;;;;;1.85;1.60;;;;;;;;;;5055200;28;20033;-60
2023/06/13 01:09:05;;;;;;;2.95;1.50;;;;;;;;;;5054573;28;20025;-60
2023/06/13 01:12:02;;;;;;;2.05;1.50;;;;;;;;;;5054783;28;20155;-60
2023/06/13 01:15:03;;;;;;;1.75;1.65;;;;;;;;;;5054894;28;20028;-62
2023/06/13 01:17:34;;;;;;;2.72;1.67;;;;;;;;;;5048871;28;20060;-61
2023/06/13 01:20:05;;;;;;;1.40;1.30;;;;;;;;;;5054876;28;20371;-60
2023/06/13 01:22:56;;;;;;;1.50;1.40;;;;;;;;;;5054575;28;20021;-63
2023/06/13 01:25:37;;;;;;;1.50;1.40;;;;;;;;;;5054814;28;20029;-60
2023/06/13 01:28:06;;;;;;;2.75;1.60;;;;;;;;;;5054475;28;20061;-60
2023/06/13 01:30:34;;;;;;;1.70;1.60;;;;;;;;;;5054666;28;20419;-60
2023/06/13 01:33:00;;;;;;;1.73;1.50;;;;;;;;;;5054226;28;20495;-60
2023/06/13 01:35:27;;;;;;;1.70;1.60;;;;;;;;;;5054291;28;20029;-60
2023/06/13 01:37:53;;;;;;;2.15;1.60;;;;;;;;;;5054199;28;20619;-61
2023/06/13 01:40:18;;;;;;;1.60;1.48;;;;;;;;;;5053118;28;20101;-60
2023/06/13 01:42:44;;;;;;;1.50;1.40;;;;;;;;;;5054435;28;20060;-60
2023/06/13 01:45:10;;;;;;;1.52;1.42;;;;;;;;;;5054437;28;20087;-60
2023/06/13 01:47:45;;;;;;;2.03;1.55;;;;;;;;;;5054249;28;20025;-60
2023/06/13 01:50:14;;;;;;;1.73;1.63;;;;;;;;;;5054307;28;20036;-60
2023/06/13 01:52:43;;;;;;;1.98;1.40;;;;;;;;;;5054154;28;20025;-60
2023/06/13 01:55:14;;;;;;;1.85;1.50;;;;;;;;;;5054255;28;20048;-60
2023/06/13 01:57:51;;;;;;;1.98;1.40;;;;;;;;;;5053937;28;20025;-60
2023/06/13 02:00:18;;;;;;;1.70;1.50;;;;;;;;;;5053893;28;20067;-60
2023/06/13 02:02:44;;;;;;;2.83;1.60;;;;;;;;;;5054052;28;20096;-63
2023/06/13 02:05:11;;;;;;;4.15;1.63;;;;;;;;;;5053749;28;20055;-61
2023/06/13 02:07:38;;;;;;;1.73;1.40;;;;;;;;;;5053923;28;20033;-63
2023/06/13 02:10:05;;;;;;;1.52;1.42;;;;;;;;;;5053407;28;20047;-61
2023/06/13 02:12:31;;;;;;;3.08;1.67;;;;;;;;;;5053875;28;20541;-62
2023/06/13 02:14:57;;;;;;;3.80;1.60;;;;;;;;;;5053510;28;20036;-63
2023/06/13 02:17:23;;;;;;;1.45;1.35;;;;;;;;;;5053447;28;20033;-60
2023/06/13 02:19:49;;;;;;;2.17;1.50;;;;;;;;;;5052917;28;20039;-63
2023/06/13 02:22:15;;;;;;;1.85;1.70;;;;;;;;;;5053149;28;20032;-60
2023/06/13 02:24:41;;;;;;;1.50;1.40;;;;;;;;;;5053488;28;20089;-59
2023/06/13 02:27:07;;;;;;;1.40;1.30;;;;;;;;;;5053284;28;20025;-62
2023/06/13 02:29:35;;;;;;;1.80;1.63;;;;;;;;;;5053615;28;20419;-60
2023/06/13 02:32:00;;;;;;;1.60;1.50;;;;;;;;;;5053529;28;20048;-60
2023/06/13 02:34:26;;;;;;;2.30;1.50;;;;;;;;;;5053105;28;20472;-60
2023/06/13 02:36:51;;;;;;;1.85;1.60;;;;;;;;;;5053403;28;20029;-60
2023/06/13 02:39:17;;;;;;;1.50;1.40;;;;;;;;;;5053173;28;20468;-60
2023/06/13 02:41:42;;;;;;;1.98;1.40;;;;;;;;;;5052984;28;20477;-60
2023/06/13 02:44:08;;;;;;;1.50;1.40;;;;;;;;;;5053081;28;20059;-61
2023/06/13 02:46:34;;;;;;;1.60;1.50;;;;;;;;;;5052850;28;20036;-60
2023/06/13 02:48:59;;;;;;;1.80;1.58;;;;;;;;;;5052909;28;20111;-60
2023/06/13 02:51:25;;;;;;;3.10;1.60;;;;;;;;;;5053113;28;20082;-60
2023/06/13 02:53:51;;;;;;;1.80;1.40;;;;;;;;;;5052813;28;20029;-60
2023/06/13 02:56:17;;;;;;;1.58;1.48;;;;;;;;;;5052723;28;20059;-60
2023/06/13 02:58:42;;;;;;;1.92;1.60;;;;;;;;;;5052861;28;20224;-60
2023/06/13 03:01:08;;;;;;;1.60;1.50;;;;;;;;;;5052691;28;20017;-60
2023/06/13 03:03:34;;;;;;;1.58;1.48;;;;;;;;;;5052700;28;20098;-60
2023/06/13 03:06:01;;;;;;;2.17;1.50;;;;;;;;;;5052611;28;20460;-60
2023/06/13 03:08:27;;;;;;;3.08;1.60;;;;;;;;;;5052936;28;20047;-60
2023/06/13 03:10:53;;;;;;;2.85;1.70;;;;;;;;;;5052428;28;20539;-60
2023/06/13 03:13:19;;;;;;;1.50;1.40;;;;;;;;;;5052520;28;20029;-60
2023/06/13 03:15:47;;;;;;;1.52;1.42;;;;;;;;;;5052451;28;20430;-61
2023/06/13 03:18:13;;;;;;;1.70;1.60;;;;;;;;;;5052599;28;20017;-60
2023/06/13 03:20:45;;;;;;;1.70;1.58;;;;;;;;;;5052700;28;20020;-60
2023/06/13 03:23:15;;;;;;;1.60;1.50;;;;;;;;;;5052458;28;20087;-63
2023/06/13 03:25:41;;;;;;;2.10;1.70;;;;;;;;;;5052365;28;20116;-61
2023/06/13 03:28:07;;;;;;;1.60;1.50;;;;;;;;;;5052683;28;20195;-61
2023/06/13 03:30:35;;;;;;;1.70;1.60;;;;;;;;;;5052599;28;20120;-61
2023/06/13 03:33:01;;;;;;;1.55;1.45;;;;;;;;;;5052395;28;20102;-63
2023/06/13 03:35:27;;;;;;;1.60;1.48;;;;;;;;;;5052318;28;20032;-61
2023/06/13 03:37:52;;;;;;;1.60;1.50;;;;;;;;;;5052338;28;20017;-60
2023/06/13 03:40:18;;;;;;;1.80;1.50;;;;;;;;;;5052163;28;20484;-61
2023/06/13 03:42:44;;;;;;;1.60;1.50;;;;;;;;;;5052283;28;20213;-62
2023/06/13 03:45:09;;;;;;;1.50;1.40;;;;;;;;;;5052140;28;20079;-61
2023/06/13 03:47:35;;;;;;;1.67;1.40;;;;;;;;;;5052145;28;20100;-61
2023/06/13 03:50:01;;;;;;;1.50;1.40;;;;;;;;;;5052081;28;20112;-63
2023/06/13 03:52:26;;;;;;;1.85;1.60;;;;;;;;;;5052145;28;20017;-62
2023/06/13 03:54:52;;;;;;;1.67;1.58;;;;;;;;;;5052047;28;20111;-61
2023/06/13 03:57:17;;;;;;;1.80;1.40;;;;;;;;;;5052116;28;20540;-61
2023/06/13 03:59:43;;;;;;;1.92;1.52;;;;;;;;;;5051961;28;20025;-61
2023/06/13 04:02:12;;;;;;;2.08;1.55;;;;;;;;;;5052344;28;20104;-63
2023/06/13 04:04:42;;;;;;;1.92;1.30;;;;;;;;;;5051914;28;20082;-61
2023/06/13 04:07:07;;;;;;;;;;;;;;;;;;5052635;28;20112;-61
2023/06/13 04:09:33;;;;;;;1.40;1.30;;;;;;;;;;5051834;28;19967;-61
2023/06/13 04:11:59;;;;;;;1.55;1.45;;;;;;;;;;5052255;28;20076;-62
2023/06/13 04:14:24;;;;;;;1.45;1.35;;;;;;;;;;5051842;28;20527;-62
2023/06/13 04:16:50;;;;;;;1.65;1.55;;;;;;;;;;5052231;28;20120;-61
2023/06/13 04:19:18;;;;;;;1.63;1.50;;;;;;;;;;5051792;28;20104;-60
2023/06/13 04:21:46;;;;;;;1.52;1.42;;;;;;;;;;5051907;28;20021;-61
2023/06/13 04:24:14;;;;;;;1.58;1.48;;;;;;;;;;5052112;28;20152;-61
2023/06/13 04:26:46;;;;;;;1.73;1.50;;;;;;;;;;5051750;28;20036;-61
2023/06/13 04:29:13;;;;;;;1.35;1.27;;;;;;;;;;5051752;28;20539;-60
2023/06/13 04:31:42;;;;;;;1.60;1.50;;;;;;;;;;5051724;28;20053;-62
2023/06/13 04:34:08;;;;;;;1.88;1.60;;;;;;;;;;5051576;28;20387;-62
2023/06/13 04:36:35;;;;;;;1.60;1.50;;;;;;;;;;5051909;28;20032;-62
2023/06/13 04:39:04;;;;;;;1.80;1.30;;;;;;;;;;5051945;28;20029;-61
2023/06/13 04:41:34;;;;;;;1.77;1.65;;;;;;;;;;5051917;28;20025;-62
2023/06/13 04:44:03;;;;;;;1.50;1.40;;;;;;;;;;5053220;28;20029;-64
2023/06/13 04:46:30;;;;;;;2.20;1.50;;;;;;;;;;5055243;28;20120;-62
2023/06/13 04:48:57;;;;;;;1.50;1.40;;;;;;;;;;5055146;28;20017;-61
2023/06/13 04:51:23;;;;;;;1.52;1.42;;;;;;;;;;5055349;28;20388;-62
2023/06/13 04:53:52;;;;;;;1.88;1.50;;;;;;;;;;5054929;28;20033;-61
2023/06/13 04:56:17;;;;;;;1.92;1.67;;;;;;;;;;5054923;28;20460;-61
2023/06/13 04:58:43;;;;;;;1.77;1.50;;;;;;;;;;5055009;28;20033;-62
2023/06/13 05:01:10;;;;;;;2.38;1.52;;;;;;;;;;5054849;28;20021;-63
2023/06/13 05:03:37;;;;;;;1.50;1.40;;;;;;;;;;5054842;28;20487;-63
2023/06/13 05:06:03;;;;;;;1.60;1.50;;;;;;;;;;5055106;28;20029;-61
2023/06/13 05:08:28;;;;;;;1.80;1.70;;;;;;;;;;5054741;28;20028;-63
2023/06/13 05:10:54;;;;;;;3.13;1.48;;;;;;;;;;5054598;28;20056;-61
2023/06/13 05:13:19;;;;;;;1.50;1.40;;;;;;;;;;5054662;28;20021;-62
2023/06/13 05:15:46;;;;;;;2.90;1.63;;;;;;;;;;5055165;28;20025;-61
2023/06/13 05:18:12;;;;;;;1.45;1.35;;;;;;;;;;5054715;28;20028;-62
2023/06/13 05:20:39;;;;;;;1.67;1.58;;;;;;;;;;5054644;28;20029;-62
2023/06/13 05:23:05;;;;;;;1.60;1.50;;;;;;;;;;5054607;28;20040;-61
2023/06/13 05:25:31;;;;;;;1.50;1.40;;;;;;;;;;5053940;28;20104;-61
2023/06/13 05:27:56;;;;;;;1.73;1.30;;;;;;;;;;5048654;28;20104;-61
2023/06/13 05:30:22;;;;;;;1.50;1.40;;;;;;;;;;5045795;28;20025;-66
2023/06/13 05:32:48;;;;;;;1.98;1.50;;;;;;;;;;5044778;28;20461;-61
2023/06/13 05:35:13;;;;;;;1.25;1.20;;;;;;;;;;5045209;28;20029;-64
2023/06/13 05:37:39;;;;;;;2.13;1.67;;;;;;;;;;5050961;28;20499;-65
2023/06/13 05:40:05;;;;;;;1.85;1.50;;;;;;;;;;5052562;28;20468;-62
2023/06/13 05:42:34;;;;;;;1.83;1.52;;;;;;;;;;5054032;28;20025;-63
2023/06/13 05:45:05;;;;;;;1.48;1.38;;;;;;;;;;5053763;28;20040;-64
2023/06/13 05:47:30;;;;;;;1.70;1.50;;;;;;;;;;5054034;28;20039;-61
2023/06/13 05:49:57;;;;;;;2.00;1.70;;;;;;;;;;5052817;28;20025;-61
2023/06/13 05:52:22;;;;;;;2.63;1.73;;;;;;;;;;5054034;28;20025;-61
2023/06/13 05:54:48;;;;;;;1.50;1.40;;;;;;;;;;5052280;28;20028;-60
2023/06/13 05:57:14;;;;;;;1.75;1.30;;;;;;;;;;5053734;28;20408;-61
2023/06/13 05:59:40;;;;;;;1.65;1.55;;;;;;;;;;5053711;28;20032;-60
2023/06/13 06:02:07;;;;;;;3.10;1.60;;;;;;;;;;5053828;28;20025;-63
2023/06/13 06:04:33;;;;;;;2.05;1.40;;;;;;;;;;5053983;28;20083;-62
2023/06/13 06:06:58;;;;;;;2.75;1.60;;;;;;;;;;5053728;28;20514;-63
2023/06/13 06:09:24;;;;;;;1.88;1.33;;;;;;;;;;5053416;28;20091;-61
2023/06/13 06:11:51;;;;;;;1.73;1.63;;;;;;;;;;5053976;28;20018;-60
2023/06/13 06:14:16;;;;;;;1.60;1.50;;;;;;;;;;5053417;28;20029;-60
2023/06/13 06:16:42;;;;;;;1.80;1.40;;;;;;;;;;5053811;28;20040;-61
2023/06/13 06:19:08;;;;;;;2.15;1.65;;;;;;;;;;5053407;28;20376;-64
2023/06/13 06:21:33;;;;;;;1.58;1.48;;;;;;;;;;5053458;28;20032;-62
2023/06/13 06:23:59;;;;;;;1.52;1.42;;;;;;;;;;5053320;28;20021;-61
2023/06/13 06:26:26;;;;;;;1.52;1.42;;;;;;;;;;5053266;28;20048;-62
2023/06/13 06:28:52;;;;;;;2.58;1.63;;;;;;;;;;5053574;28;20021;-61
2023/06/13 06:31:17;;;;;;;1.60;1.50;;;;;;;;;;5053566;28;20435;-60
2023/06/13 06:33:43;;;;;;;1.52;1.40;;;;;;;;;;5053022;28;20047;-62
2023/06/13 06:36:09;;;;;;;2.67;1.40;;;;;;;;;;5053504;28;20034;-62
2023/06/13 06:38:34;;;;;;;1.75;1.55;;;;;;;;;;5053153;28;20503;-63
2023/06/13 06:41:00;;;;;;;2.10;1.40;;;;;;;;;;5053029;28;20073;-63
2023/06/13 06:43:25;;;;;;;2.35;1.63;;;;;;;;;;5053232;28;20074;-64
2023/06/13 06:45:51;;;;;;;1.42;1.33;;;;;;;;;;5053078;28;20017;-61
2023/06/13 06:48:17;;;;;;;1.70;1.60;;;;;;;;;;5052919;28;20032;-65
2023/06/13 06:50:42;;;;;;;2.35;1.38;;;;;;;;;;5053022;28;20028;-62
2023/06/13 06:53:08;;;;;;;1.85;1.40;;;;;;;;;;5051533;28;20105;-64
2023/06/13 06:55:33;;;;;;;3.67;1.67;;;;;;;;;;5053102;28;20021;-65
2023/06/13 06:57:59;;;;;;;1.60;1.50;;;;;;;;;;5052791;28;20388;-61
2023/06/13 07:00:25;;;;;;;1.67;1.50;;;;;;;;;;5052747;28;20025;-64
2023/06/13 07:02:51;;;;;;;1.40;1.30;;;;;;;;;;5052644;28;20491;-60
2023/06/13 07:05:17;;;;;;;1.55;1.45;;;;;;;;;;5052984;28;20380;-62
2023/06/13 07:07:44;;;;;;;1.73;1.63;;;;;;;;;;5052228;28;20025;-63
2023/06/13 07:10:10;;;;;;;2.88;1.48;;;;;;;;;;5052334;28;20045;-64
2023/06/13 07:12:37;;;;;;;1.40;1.30;;;;;;;;;;5044574;28;20112;-64
2023/06/13 07:15:03;;;;;;;1.90;1.33;;;;;;;;;;5042344;28;20029;-62
2023/06/13 07:17:30;;;;;;;1.80;1.70;;;;;;;;;;5044776;28;20074;-63
2023/06/13 07:19:56;;;;;;;1.88;1.60;;;;;;;;;;5043116;28;20032;-62
2023/06/13 07:22:22;;;;;;;1.60;1.45;;;;;;;;;;5040170;28;20017;-63
2023/06/13 07:24:47;;;;;;;3.05;1.77;;;;;;;;;;5042953;28;20026;-62
2023/06/13 07:27:15;;;;;;;3.95;1.60;;;;;;;;;;5046494;28;20030;-63
2023/06/13 07:29:41;;;;;;;1.70;1.60;;;;;;;;;;5048507;28;20648;-61
2023/06/13 07:32:07;;;;;;;1.70;1.50;;;;;;;;;;5042837;28;20029;-63
2023/06/13 07:34:32;;;;;;;1.90;1.30;;;;;;;;;;5033701;28;20030;-63
2023/06/13 07:36:58;;;;;;;1.60;1.50;;;;;;;;;;5030610;28;20533;-64
2023/06/13 07:39:24;;;;;;;1.65;1.48;;;;;;;;;;5030761;28;20029;-61
2023/06/13 07:41:50;;;;;;;1.65;1.45;;;;;;;;;;5030716;28;20026;-62
2023/06/13 07:44:16;;;;;;;2.35;1.50;;;;;;;;;;5029646;28;20037;-66
2023/06/13 07:46:42;;;;;;;1.67;1.58;;;;;;;;;;5046032;28;20396;-63
2023/06/13 07:49:08;;;;;;;2.47;1.60;;;;;;;;;;5030651;28;20393;-62
2023/06/13 07:51:33;;;;;;;1.67;1.55;;;;;;;;;;5030457;28;20017;-64
2023/06/13 07:53:59;;;;;;;2.30;1.58;;;;;;;;;;5030367;28;20116;-63
2023/06/13 07:56:26;;;;;;;1.38;1.27;;;;;;;;;;5030701;28;20366;-61
2023/06/13 07:58:51;;;;;;;1.75;1.35;;;;;;;;;;5030324;28;20025;-64
2023/06/13 08:01:17;;;;;;;1.98;1.65;;;;;;;;;;5043659;28;20032;-62
2023/06/13 08:03:46;;;;;;;2.42;1.40;;;;;;;;;;5048855;28;20508;-61
2023/06/13 08:06:12;;;;;;;2.42;1.52;;;;;;;;;;5050168;28;20104;-63
2023/06/13 08:08:37;;;;;;;2.22;1.50;;;;;;;;;;5050332;28;20100;-63
2023/06/13 08:11:03;;;;;;;1.98;1.55;;;;;;;;;;5048826;28;20069;-63
2023/06/13 08:13:28;;;;;;;1.60;1.50;;;;;;;;;;5046751;28;20042;-64
2023/06/13 08:15:55;;;;;;;2.17;1.65;;;;;;;;;;5038956;28;20045;-60
2023/06/13 08:18:21;;;;;;;2.42;1.70;;;;;;;;;;5041204;28;20036;-63
2023/06/13 08:20:49;;;;;;;3.40;1.60;;;;;;;;;;5052372;28;20098;-60
2023/06/13 08:23:17;;;;;;;1.60;1.50;;;;;;;;;;5047389;28;20033;-60
2023/06/13 08:25:44;;;;;;;2.95;1.80;;;;;;;;;;5040858;28;20086;-65
2023/06/13 08:28:11;;;;;;;1.85;1.60;;;;;;;;;;5043133;28;20022;-64
2023/06/13 08:30:37;;;;;;;1.50;1.38;;;;;;;;;;5044470;28;20029;-66
2023/06/13 08:33:03;;;;;;;3.58;1.85;;;;;;;;;;5053764;28;20029;-61
2023/06/13 08:35:29;;;;;;;1.88;1.77;;;;;;;;;;5054001;28;20072;-62
2023/06/13 08:37:55;;;;;;;1.92;1.50;;;;;;;;;;5053957;28;20039;-61
2023/06/13 08:40:21;;;;;;;1.70;1.60;;;;;;;;;;5053600;28;20095;-61
2023/06/13 08:42:47;;;;;;;1.50;1.40;;;;;;;;;;5053742;28;20025;-61
2023/06/13 08:45:14;;;;;;;5.30;1.70;;;;;;;;;;5052205;28;20056;-63
2023/06/13 08:47:46;;;;;;;3.25;1.80;;;;;;;;;;5053565;28;20036;-62
2023/06/13 08:50:13;;;;;;;4.10;1.65;;;;;;;;;;5053780;28;20053;-62
2023/06/13 08:52:42;;;;;;;3.95;1.60;;;;;;;;;;5053505;28;20033;-61
2023/06/13 08:55:16;;;;;;;2.90;1.70;;;;;;;;;;5053768;28;20025;-61
2023/06/13 08:57:42;;;;;;;2.38;1.70;;;;;;;;;;5053263;28;20079;-59
2023/06/13 09:00:12;;;;;;;2.65;1.70;;;;;;;;;;5053276;28;20036;-61
2023/06/13 09:02:45;;;;;;;1.80;1.60;;;;;;;;;;5053414;28;20486;-64
2023/06/13 09:05:15;;;;;;;7.28;1.65;;;;;;;;;;5045708;28;20083;-62
2023/06/13 09:07:42;;;;;;;4.75;1.70;;;;;;;;;;5044454;28;20067;-64
2023/06/13 09:10:12;;;;;;;2.08;1.50;;;;;;;;;;5046013;28;20068;-63
2023/06/13 09:12:42;;;;;;;4.93;1.63;;;;;;;;;;5052430;28;20033;-64
2023/06/13 09:15:10;;;;;;;3.30;1.90;;;;;;;;;;5052928;28;20508;-62
2023/06/13 09:17:35;;;;;;;4.95;1.77;;;;;;;;;;5053095;28;20029;-61
2023/06/13 09:20:05;;;;;;;3.22;1.70;;;;;;;;;;5052838;28;20029;-66
2023/06/13 09:22:32;;;;;;;3.03;1.50;;;;;;;;;;5052865;28;20377;-63
2023/06/13 09:25:00;;;;;;;2.72;1.60;;;;;;;;;;5052833;28;20548;-65
2023/06/13 09:27:27;;;;;;;5.65;1.90;;;;;;;;;;5052775;28;20477;-66
2023/06/13 09:29:52;;;;;;;12.18;2.33;;;;;;;;;;5052384;28;20033;-64
2023/06/13 09:32:22;;;;;;;14.68;2.25;;;;;;;;;;5052929;28;20036;-65
2023/06/13 09:34:51;;;;;;;18.42;1.80;;;;;;;;;;5052470;28;20044;-63
2023/06/13 09:37:16;;;;;;;5.90;1.90;;;;;;;;;;5052575;28;20029;-63
2023/06/13 09:39:50;;;;;;;13.10;2.08;;;;;;;;;;5052628;28;20039;-62
2023/06/13 09:42:26;;;;;;;4.43;1.77;;;;;;;;;;5052341;28;20021;-64
2023/06/13 09:44:52;;;;;;;7.85;2.10;;;;;;;;;;5052595;28;20389;-63
2023/06/13 09:47:22;;;;;;;8.50;2.50;;;;;;;;;;5052831;28;20021;-64
2023/06/13 09:49:55;;;;;;;7.10;1.85;;;;;;;;;;5052882;28;20039;-63
2023/06/13 09:52:25;;;;;;;7.07;2.30;;;;;;;;;;5052632;28;20033;-63
2023/06/13 09:54:51;;;;;;;;;;;;;;;;;;5053050;28;20040;-63
2023/06/13 09:57:18;;;;;;;4.93;2.25;;;;;;;;;;5052533;28;19959;-62
2023/06/13 09:59:46;;;;;;;8.75;2.13;;;;;;;;;;5052326;28;20380;-66
2023/06/13 10:02:12;;;;;;;4.03;2.03;;;;;;;;;;5065084;28;20049;-62
2023/06/13 10:04:37;;;;;;;5.00;2.08;;;;;;;;;;5052498;28;20492;-62
2023/06/13 10:07:03;;;;;;;2.45;1.90;;;;;;;;;;5052336;28;20048;-65
2023/06/13 10:09:29;;;;;;;6.05;2.08;;;;;;;;;;5051963;28;20041;-62
2023/06/13 10:11:58;;;;;;;5.65;2.05;;;;;;;;;;5052082;28;20043;-65
2023/06/13 10:14:24;;;;;;;6.82;1.90;;;;;;;;;;5051922;28;20045;-62
2023/06/13 10:16:56;;;;;;;3.13;2.10;;;;;;;;;;5051933;28;20476;-63
2023/06/13 10:19:24;;;;;;;4.93;2.00;;;;;;;;;;5051871;28;20424;-64
2023/06/13 10:21:50;;;;;;;4.68;2.30;;;;;;;;;;5052147;28;20103;-62
2023/06/13 10:24:17;;;;;;;4.30;2.03;;;;;;;;;;5048558;28;20025;-66
2023/06/13 10:26:45;;;;;;;3.75;2.00;;;;;;;;;;5051881;28;20095;-62
2023/06/13 10:29:13;;;;;;;3.35;2.20;;;;;;;;;;5051857;28;20103;-61
2023/06/13 10:32:10;;;;;;;3.47;1.88;;;;;;;;;;5051581;28;20614;-64
2023/06/13 10:35:00;;;;;;;3.92;1.73;;;;;;;;;;5051428;28;20028;-65
2023/06/13 10:37:38;;;;;;;2.10;1.80;;;;;;;;;;5050246;28;20400;-63
2023/06/13 10:40:25;;;;;;;4.80;2.15;;;;;;;;;;5048242;28;20068;-61
2023/06/13 10:43:35;;;;;;;10.85;1.95;;;;;;;;;;5049719;28;20036;-64
2023/06/13 10:46:05;;;;;;;3.53;1.70;;;;;;;;;;5045150;28;20040;-63
2023/06/13 10:48:54;;;;;;;4.20;1.90;;;;;;;;;;5049835;28;20690;-64
2023/06/13 10:51:26;;;;;;;1.63;1.50;;;;;;;;;;5051616;28;20125;-65
2023/06/13 10:54:03;;;;;;;2.83;1.73;;;;;;;;;;5051193;28;20098;-63
2023/06/13 10:56:31;;;;;;;5.18;2.20;;;;;;;;;;5050985;28;20029;-64
2023/06/13 10:59:04;;;;;;;2.83;2.03;;;;;;;;;;5051341;28;20109;-64
2023/06/13 11:01:35;;;;;;;2.70;1.92;;;;;;;;;;5051018;28;20385;-62
2023/06/13 11:04:13;;;;;;;5.03;2.17;;;;;;;;;;5050996;28;20407;-64
2023/06/13 11:06:41;;;;;;;5.07;2.03;;;;;;;;;;5051045;28;20039;-63
2023/06/13 11:09:14;;;;;;;3.30;1.70;;;;;;;;;;5050791;28;20029;-65
2023/06/13 11:11:48;;;;;;;3.22;1.80;;;;;;;;;;5051039;28;20040;-64
2023/06/13 11:14:15;;;;;;;3.63;1.70;;;;;;;;;;5051266;28;20033;-65
2023/06/13 11:16:43;;;;;;;6.00;2.45;;;;;;;;;;5050849;28;20116;-65
2023/06/13 11:19:13;;;;;;;3.78;2.05;;;;;;;;;;5050643;28;20033;-66
2023/06/13 11:21:45;;;;;;;9.35;2.38;;;;;;;;;;5050655;28;20021;-64
2023/06/13 11:24:15;;;;;;;2.55;2.10;;;;;;;;;;5042298;28;20358;-63
2023/06/13 11:26:45;;;;;;;6.93;2.00;;;;;;;;;;5042847;28;20026;-62
2023/06/13 11:29:15;;;;;;;2.80;2.08;;;;;;;;;;5040077;28;20548;-65
2023/06/13 11:31:41;;;;;;;4.50;2.13;;;;;;;;;;5041611;28;20025;-65
2023/06/13 11:34:14;;;;;;;4.22;1.80;;;;;;;;;;5040016;28;20026;-64
2023/06/13 11:36:45;;;;;;;4.57;2.00;;;;;;;;;;5039048;28;20029;-64
2023/06/13 11:39:23;;;;;;;45.50;3.75;;;;;;;;;;5040696;28;20030;-66
2023/06/13 11:41:49;;;;;;;6.15;1.92;;;;;;;;;;5036050;28;20064;-66
2023/06/13 11:44:15;;;;;;;2.90;2.08;;;;;;;;;;5036688;28;20082;-65
2023/06/13 11:46:43;;;;;;;6.75;2.15;;;;;;;;;;5050485;28;20032;-64
2023/06/13 11:49:13;;;;;;;5.13;2.15;;;;;;;;;;5050821;28;20025;-64
2023/06/13 11:51:38;;;;;;;5.47;1.98;;;;;;;;;;5050661;28;20112;-64
2023/06/13 11:54:04;;;;;;;7.05;2.22;;;;;;;;;;5053983;28;20121;-64
2023/06/13 11:56:34;;;;;;;3.55;2.13;;;;;;;;;;5054385;28;20480;-64
2023/06/13 11:59:00;;;;;;;7.15;2.28;;;;;;;;;;5054759;28;20098;-64
2023/06/13 12:01:26;;;;;;;6.10;2.38;;;;;;;;;;5054376;28;20476;-65
2023/06/13 12:03:52;;;;;;;6.05;2.00;;;;;;;;;;5054246;28;20039;-65
2023/06/13 12:06:19;;;;;;;3.80;2.15;;;;;;;;;;5054480;28;20470;-64
2023/06/13 12:08:45;;;;;;;2.80;1.90;;;;;;;;;;5054228;28;20041;-65
2023/06/13 12:11:16;;;;;;;6.97;2.50;;;;;;;;;;5052383;28;20037;-65
2023/06/13 12:13:58;;;;;;;3.50;1.95;;;;;;;;;;5045583;28;20018;-64
2023/06/13 12:16:29;;;;;;;4.13;2.20;;;;;;;;;;5051788;28;20028;-64
2023/06/13 12:18:55;;;;;;;6.38;2.08;;;;;;;;;;5054051;28;20043;-64
2023/06/13 12:21:32;;;;;;;4.57;1.90;;;;;;;;;;5052711;28;20023;-65
2023/06/13 12:24:00;;;;;;;2.70;1.98;;;;;;;;;;5039796;28;20021;-66
2023/06/13 12:26:28;;;;;;;3.65;2.08;;;;;;;;;;5052688;28;20048;-64
2023/06/13 12:28:55;;;;;;;4.53;2.30;;;;;;;;;;5050670;28;20025;-64
2023/06/13 12:31:37;;;;;;;2.35;1.75;;;;;;;;;;5044299;28;20029;-65
2023/06/13 12:34:26;;;;;;;3.13;2.25;;;;;;;;;;5044445;28;20044;-65
2023/06/13 12:36:57;;;;;;;5.17;2.07;;;;;;;;;;5043127;28;20477;-66
2023/06/13 12:39:23;;;;;;;3.58;2.03;;;;;;;;;;5050908;28;20039;-65
2023/06/13 12:41:52;;;;;;;7.05;2.00;;;;;;;;;;5053584;28;20029;-64
2023/06/13 12:44:21;;;;;;;5.32;2.30;;;;;;;;;;5053951;28;20033;-65
2023/06/13 12:46:49;;;;;;;5.22;2.17;;;;;;;;;;5053546;28;20047;-65
2023/06/13 12:49:19;;;;;;;6.60;2.70;;;;;;;;;;5044086;28;20033;-67
2023/06/13 12:51:48;;;;;;;9.35;2.70;;;;;;;;;;5050908;28;20032;-64
2023/06/13 12:54:23;;;;;;;4.57;2.22;;;;;;;;;;5044053;28;20452;-65
2023/06/13 12:56:57;;;;;;;7.20;2.10;;;;;;;;;;5041781;28;20120;-65
2023/06/13 12:59:34;;;;;;;7.07;2.15;;;;;;;;;;5038843;28;20029;-66
2023/06/13 13:02:03;;;;;;;4.32;2.35;;;;;;;;;;5041000;28;20025;-65
2023/06/13 13:04:34;;;;;;;5.17;2.70;;;;;;;;;;5037827;28;20557;-65
2023/06/13 13:07:00;;;;;;;4.55;2.78;;;;;;;;;;5043670;28;20294;-64
2023/06/13 13:09:28;;;;;;;11.70;2.40;;;;;;;;;;5052967;28;20493;-65
2023/06/13 13:11:55;;;;;;;5.07;2.10;;;;;;;;;;5050363;28;20033;-65
2023/06/13 13:14:25;;;;;;;4.90;2.40;;;;;;;;;;5041446;28;20043;-65
2023/06/13 13:16:51;;;;;;;3.38;2.60;;;;;;;;;;5033213;28;20105;-66
2023/06/13 13:19:17;;;;;;;3.80;2.00;;;;;;;;;;5038086;28;20116;-65
2023/06/13 13:21:43;;;;;;;4.97;2.30;;;;;;;;;;5033436;28;20025;-65
2023/06/13 13:24:08;;;;;;;5.45;1.98;;;;;;;;;;5031526;28;20485;-65
2023/06/13 13:26:34;;;;;;;3.58;2.30;;;;;;;;;;5033067;28;20032;-65
2023/06/13 13:29:00;;;;;;;6.22;2.20;;;;;;;;;;5032514;28;20799;-65
2023/06/13 13:31:26;;;;;;;3.00;2.20;;;;;;;;;;5039962;28;20028;-65
2023/06/13 13:33:51;;;;;;;5.45;2.30;;;;;;;;;;5042281;28;20377;-65
2023/06/13 13:36:17;;;;;;;2.45;2.00;;;;;;;;;;5041709;28;20087;-65
2023/06/13 13:38:42;;;;;;;4.25;2.08;;;;;;;;;;5046491;28;20035;-65
2023/06/13 13:41:08;;;;;;;3.95;2.13;;;;;;;;;;5050101;28;20048;-66
2023/06/13 13:43:33;;;;;;;4.53;2.03;;;;;;;;;;5051922;28;20036;-66
2023/06/13 13:45:59;;;;;;;5.15;2.33;;;;;;;;;;5052467;28;20370;-65
2023/06/13 13:48:25;;;;;;;2.80;2.50;;;;;;;;;;5052455;28;20117;-64
2023/06/13 13:50:50;;;;;;;3.42;2.58;;;;;;;;;;5051809;28;20032;-68
2023/06/13 13:53:36;;;;;;;3.72;2.28;;;;;;;;;;5050352;28;20091;-64
2023/06/13 13:56:02;;;;;;;3.10;2.25;;;;;;;;;;5045315;28;20393;-66
2023/06/13 13:58:27;;;;;;;4.57;2.20;;;;;;;;;;5061543;28;20032;-65
2023/06/13 14:00:53;;;;;;;5.47;2.50;;;;;;;;;;5052343;28;20099;-65
2023/06/13 14:03:18;;;;;;;2.33;2.13;;;;;;;;;;5052273;28;20025;-65
2023/06/13 14:05:44;;;;;;;2.72;2.10;;;;;;;;;;5052260;28;20523;-65
2023/06/13 14:08:10;;;;;;;2.05;1.90;;;;;;;;;;5052052;28;20025;-65
2023/06/13 14:10:35;;;;;;;2.75;2.55;;;;;;;;;;5051959;28;20052;-65
2023/06/13 14:13:01;;;;;;;3.35;2.28;;;;;;;;;;5052003;28;20075;-65
2023/06/13 14:15:27;;;;;;;2.53;2.00;;;;;;;;;;5051533;28;20041;-64
2023/06/13 14:17:52;;;;;;;4.10;1.83;;;;;;;;;;5051570;28;20025;-64
2023/06/13 14:20:18;;;;;;;4.18;1.90;;;;;;;;;;5052000;28;20028;-65
2023/06/13 14:22:44;;;;;;;3.75;2.30;;;;;;;;;;5051693;28;20032;-66
2023/06/13 14:25:10;;;;;;;3.78;2.20;;;;;;;;;;5051982;28;20020;-65
2023/06/13 14:27:36;;;;;;;4.10;2.15;;;;;;;;;;5052076;28;20060;-65
2023/06/13 14:30:03;;;;;;;9.20;2.63;;;;;;;;;;5051627;28;20033;-66
2023/06/13 14:32:28;;;;;;;4.18;2.60;;;;;;;;;;5051960;28;20037;-65
2023/06/13 14:34:54;;;;;;;6.85;2.67;;;;;;;;;;5051554;28;20654;-66
2023/06/13 14:37:19;;;;;;;3.75;1.92;;;;;;;;;;5051592;28;20029;-65
2023/06/13 14:39:45;;;;;;;10.63;3.50;;;;;;;;;;5051575;28;20082;-66
2023/06/13 14:42:11;;;;;;;5.88;2.90;;;;;;;;;;5051652;28;20110;-65
2023/06/13 14:44:37;;;;;;;10.68;3.58;;;;;;;;;;5051012;28;20036;-65
2023/06/13 14:47:04;;;;;;;10.77;3.30;;;;;;;;;;5051378;28;20041;-65